首页
METAR-TAF:

METAR-TAF

机场 :

Tri-City Airport

Parsons, 堪薩斯州, 美国

纬度: 37-19-40N, 经度: 095-30-15W, 海拔: 274米

当前天气观测

该预报发布于8分钟前的18:52 UTC
风速18节,风向西南,有时为31节阵风
温度 21°C
湿度 33%
气压 1004 hPa
能見度: 16.1公里
天空无云

METAR: KPPF 281852Z AUTO 23018G31KT 10SM CLR 21/04 A2964 RMK AO2 PK WND 23036/1841 SLP028 T02060044

时间: 14:00 (19:00 UTC)


TAF: 丢失

超过4000个机场的气象观测和天气预报(METAR&TAF报告)。

可查询的气象台以黄色和红色小点在地图上表示。

将鼠标移到小点上方,可查看气象台名称。

然后点击查看天气观测和预报。

如需切换地图:点击带黑十字的绿色按钮放大地图;点击带横线的绿色按钮缩小地图;或者点击绿色箭头查看邻近地区的地图。


METAR-TAF: